createdAt,value
2022-10-21T00:01:23.965Z,8.32
2022-10-21T00:03:50.265Z,8.29
2022-10-21T00:06:16.611Z,8.35
2022-10-21T00:08:42.921Z,8.22
2022-10-21T00:11:10.207Z,8.20
2022-10-21T00:13:39.332Z,8.20
2022-10-21T00:16:11.811Z,8.21
2022-10-21T00:18:39.512Z,8.16
2022-10-21T00:21:16.053Z,8.18
2022-10-21T00:23:43.380Z,8.22
2022-10-21T00:26:10.859Z,8.20
2022-10-21T00:28:37.261Z,8.25
2022-10-21T00:31:07.076Z,8.22
2022-10-21T00:33:33.485Z,8.30
2022-10-21T00:36:04.046Z,8.23
2022-10-21T00:38:31.166Z,8.30
2022-10-21T00:40:58.448Z,8.19
2022-10-21T00:43:25.607Z,8.23
2022-10-21T00:46:02.858Z,8.23
2022-10-21T00:48:44.988Z,8.17
2022-10-21T00:51:15.722Z,8.21
2022-10-21T00:53:49.350Z,8.15
2022-10-21T00:56:20.172Z,8.15
2022-10-21T00:58:48.835Z,8.22
2022-10-21T01:01:19.113Z,8.25
2022-10-21T01:03:47.830Z,8.26
2022-10-21T01:06:15.818Z,8.27
2022-10-21T01:08:42.409Z,8.24
2022-10-21T01:11:14.258Z,8.27
2022-10-21T01:14:00.131Z,8.27
2022-10-21T01:16:44.309Z,8.21
2022-10-21T01:19:22.946Z,8.20
2022-10-21T01:21:49.239Z,8.26
2022-10-21T01:24:33.598Z,8.28
2022-10-21T01:27:19.618Z,8.22
2022-10-21T01:30:07.103Z,8.30
2022-10-21T01:33:00.943Z,8.30
2022-10-21T01:36:09.267Z,8.33
2022-10-21T01:38:45.519Z,8.32
2022-10-21T01:41:27.038Z,8.36
2022-10-21T01:44:24.169Z,8.39
2022-10-21T01:46:58.060Z,8.42
2022-10-21T01:49:48.071Z,8.33
2022-10-21T01:52:16.068Z,8.34
2022-10-21T01:54:45.518Z,8.35
2022-10-21T01:57:16.462Z,8.35
2022-10-21T01:59:44.354Z,8.40
2022-10-21T02:02:12.164Z,8.46
2022-10-21T02:04:42.401Z,8.43
2022-10-21T02:07:09.325Z,8.42
2022-10-21T02:09:36.102Z,8.50
2022-10-21T02:12:04.642Z,8.49
2022-10-21T02:14:39.740Z,8.49
2022-10-21T02:17:07.831Z,8.45
2022-10-21T02:19:34.199Z,8.44
2022-10-21T02:22:02.379Z,8.41
2022-10-21T02:24:51.072Z,8.44
2022-10-21T02:27:18.416Z,8.40
2022-10-21T02:29:48.324Z,8.36
2022-10-21T02:32:26.531Z,8.40
2022-10-21T02:35:26.994Z,8.36
2022-10-21T02:38:12.268Z,8.34
2022-10-21T02:40:47.890Z,8.37
2022-10-21T02:43:19.586Z,8.33
2022-10-21T02:45:47.883Z,8.33
2022-10-21T02:48:14.663Z,8.30
2022-10-21T02:50:41.003Z,8.32
2022-10-21T02:53:10.176Z,8.32
2022-10-21T02:55:36.480Z,8.34
2022-10-21T02:58:02.824Z,8.37
2022-10-21T03:00:32.130Z,8.38
2022-10-21T03:02:59.682Z,8.28
2022-10-21T03:05:25.998Z,8.32
2022-10-21T03:07:52.340Z,8.27
2022-10-21T03:10:18.635Z,8.28
2022-10-21T03:12:44.967Z,8.25
2022-10-21T03:15:11.475Z,8.17
2022-10-21T03:17:38.195Z,8.21
2022-10-21T03:20:05.069Z,8.21
2022-10-21T03:22:32.666Z,8.26
2022-10-21T03:24:59.077Z,8.22
2022-10-21T03:27:26.258Z,8.28
2022-10-21T03:29:52.671Z,8.28
2022-10-21T03:32:18.969Z,8.26
2022-10-21T03:34:45.279Z,8.29
2022-10-21T03:37:11.609Z,8.27
2022-10-21T03:39:37.895Z,8.27
2022-10-21T03:42:04.221Z,8.31
2022-10-21T03:44:30.525Z,8.32
2022-10-21T03:46:56.870Z,8.25
2022-10-21T03:49:23.443Z,8.25
2022-10-21T03:51:50.024Z,8.27
2022-10-21T03:54:17.221Z,8.31
2022-10-21T03:56:43.767Z,8.37
2022-10-21T03:59:10.082Z,8.42
2022-10-21T04:01:37.059Z,8.35
2022-10-21T04:04:03.590Z,8.29
2022-10-21T04:06:30.157Z,8.29
2022-10-21T04:08:56.539Z,8.32
2022-10-21T04:11:22.899Z,8.33
2022-10-21T04:13:49.669Z,8.25
2022-10-21T04:16:19.256Z,8.25
2022-10-21T04:18:45.664Z,8.26
2022-10-21T04:21:12.417Z,8.23
2022-10-21T04:23:39.086Z,8.27
2022-10-21T04:26:05.648Z,8.29
2022-10-21T04:28:32.395Z,8.23
2022-10-21T04:30:58.946Z,8.18
2022-10-21T04:33:25.542Z,8.18
2022-10-21T04:35:54.149Z,8.13
2022-10-21T04:38:21.677Z,8.13
2022-10-21T04:40:47.988Z,8.09
2022-10-21T04:43:14.519Z,8.12
2022-10-21T04:45:40.845Z,8.07
2022-10-21T04:48:07.362Z,8.08
2022-10-21T04:50:35.164Z,8.02
2022-10-21T04:53:01.558Z,7.99
2022-10-21T04:55:27.871Z,8.03
2022-10-21T04:57:54.213Z,8.03
2022-10-21T05:00:20.671Z,8.07
2022-10-21T05:02:47.113Z,8.09
2022-10-21T05:05:13.473Z,8.02
2022-10-21T05:07:39.874Z,8.06
2022-10-21T05:10:06.797Z,7.98
2022-10-21T05:12:33.190Z,7.98
2022-10-21T05:15:00.490Z,7.92
2022-10-21T05:17:26.804Z,7.90
2022-10-21T05:19:53.295Z,7.89
2022-10-21T05:22:19.771Z,7.84
2022-10-21T05:24:46.057Z,7.80
2022-10-21T05:27:12.548Z,7.86
2022-10-21T05:29:38.979Z,7.86
2022-10-21T05:32:05.540Z,7.89
2022-10-21T05:34:31.837Z,7.73
2022-10-21T05:36:58.404Z,7.69
2022-10-21T05:39:24.686Z,7.63
2022-10-21T05:41:50.986Z,7.72
2022-10-21T05:44:17.291Z,7.76
2022-10-21T05:46:43.628Z,7.68
2022-10-21T05:49:10.067Z,7.71
2022-10-21T05:51:36.504Z,7.74
2022-10-21T05:54:05.291Z,7.73
2022-10-21T05:56:32.932Z,7.71
2022-10-21T05:58:59.300Z,7.73
2022-10-21T06:01:25.697Z,7.69
2022-10-21T06:03:52.267Z,7.72
2022-10-21T06:06:18.640Z,7.68
2022-10-21T06:08:45.431Z,7.76
2022-10-21T06:11:14.682Z,7.78
2022-10-21T06:13:41.848Z,7.76
2022-10-21T06:16:09.267Z,7.82
2022-10-21T06:18:35.672Z,7.86
2022-10-21T06:21:02.037Z,7.90
2022-10-21T06:23:28.526Z,7.93
2022-10-21T06:25:59.187Z,7.90
2022-10-21T06:28:26.485Z,7.97
2022-10-21T06:30:53.100Z,8.00
2022-10-21T06:33:24.580Z,8.06
2022-10-21T06:35:53.630Z,8.07
2022-10-21T06:38:19.935Z,8.16
2022-10-21T06:40:48.505Z,8.04
2022-10-21T06:43:16.832Z,8.10
2022-10-21T06:45:43.402Z,8.12
2022-10-21T06:48:09.901Z,8.19
2022-10-21T06:50:39.887Z,8.15
2022-10-21T06:53:06.423Z,8.20
2022-10-21T06:55:32.765Z,8.22
2022-10-21T06:57:59.625Z,8.30
2022-10-21T07:00:26.580Z,8.28
2022-10-21T07:02:53.094Z,8.23
2022-10-21T07:05:19.439Z,8.38
2022-10-21T07:07:45.800Z,8.37
2022-10-21T07:10:12.339Z,8.29
2022-10-21T07:12:38.736Z,8.37
2022-10-21T07:15:05.404Z,8.32
2022-10-21T07:17:31.843Z,8.37
2022-10-21T07:19:58.267Z,8.40
2022-10-21T07:22:24.690Z,8.48
2022-10-21T07:24:51.056Z,8.53
2022-10-21T07:27:17.401Z,8.61
2022-10-21T07:29:43.692Z,8.70
2022-10-21T07:32:10.001Z,8.67
2022-10-21T07:34:36.342Z,8.76
2022-10-21T07:37:02.626Z,8.76
2022-10-21T07:39:28.988Z,8.77
2022-10-21T07:41:57.954Z,8.84
2022-10-21T07:44:30.516Z,8.77
2022-10-21T07:46:57.141Z,8.84
2022-10-21T07:49:24.397Z,8.92
2022-10-21T07:51:50.774Z,9.00
2022-10-21T07:54:18.593Z,9.05
2022-10-21T07:56:47.825Z,9.11
2022-10-21T07:59:15.534Z,9.20
2022-10-21T08:01:44.351Z,9.28
2022-10-21T08:04:14.075Z,9.39
2022-10-21T08:06:40.605Z,9.38
2022-10-21T08:09:07.448Z,9.28
2022-10-21T08:11:34.351Z,9.41
2022-10-21T08:14:01.289Z,9.40
2022-10-21T08:16:49.166Z,9.47
2022-10-21T08:19:19.457Z,9.51
2022-10-21T08:21:46.129Z,9.42
2022-10-21T08:24:12.453Z,9.53
2022-10-21T08:26:39.034Z,9.59
2022-10-21T08:29:05.464Z,9.58
2022-10-21T08:31:32.201Z,9.57
2022-10-21T08:33:59.369Z,9.48
2022-10-21T08:36:26.770Z,9.52
2022-10-21T08:38:54.238Z,9.61
2022-10-21T08:41:35.987Z,9.68
2022-10-21T08:44:07.045Z,9.64
2022-10-21T08:46:37.742Z,9.73
2022-10-21T08:49:10.905Z,9.76
2022-10-21T08:51:44.748Z,9.74
2022-10-21T08:54:20.895Z,9.78
2022-10-21T08:56:50.353Z,9.79
2022-10-21T08:59:22.286Z,9.83
2022-10-21T09:01:59.249Z,9.87
2022-10-21T09:04:43.993Z,9.99
2022-10-21T09:07:27.207Z,9.94
2022-10-21T09:10:01.532Z,10.11
2022-10-21T09:12:44.381Z,10.20
2022-10-21T09:15:19.277Z,10.13
2022-10-21T09:18:04.031Z,10.13
2022-10-21T09:21:07.889Z,10.25
2022-10-21T09:23:52.066Z,10.29
2022-10-21T09:26:21.110Z,10.28
2022-10-21T09:28:48.366Z,10.33
2022-10-21T09:31:20.156Z,10.32
2022-10-21T09:33:54.995Z,10.38
2022-10-21T09:36:29.951Z,10.41
2022-10-21T09:39:07.663Z,10.49
2022-10-21T09:41:41.301Z,10.38
2022-10-21T09:44:15.920Z,10.54
2022-10-21T09:46:45.573Z,10.71
2022-10-21T09:49:54.721Z,10.78
2022-10-21T09:52:17.062Z,10.89
2022-10-21T09:54:44.449Z,10.85
2022-10-21T09:57:40.807Z,10.90
2022-10-21T10:00:11.093Z,10.89
2022-10-21T10:02:45.301Z,10.84
2022-10-21T10:05:33.630Z,10.88
2022-10-21T10:07:59.979Z,10.88
2022-10-21T10:10:33.002Z,10.87
2022-10-21T10:13:00.182Z,10.99
2022-10-21T10:15:36.053Z,11.01
2022-10-21T10:18:03.305Z,11.12
2022-10-21T10:20:31.590Z,11.13
2022-10-21T10:23:00.948Z,11.13
2022-10-21T10:25:36.096Z,11.30
2022-10-21T10:28:24.511Z,11.40
2022-10-21T10:30:54.694Z,11.53
2022-10-21T10:33:31.001Z,11.58
2022-10-21T10:36:05.560Z,11.84
2022-10-21T10:38:54.591Z,11.84
2022-10-21T10:41:21.988Z,12.07
2022-10-21T10:43:54.200Z,12.13
2022-10-21T10:46:33.275Z,11.93
2022-10-21T10:49:21.167Z,12.06
2022-10-21T10:52:05.954Z,12.09
2022-10-21T10:54:32.539Z,12.16
2022-10-21T10:57:33.961Z,12.16
2022-10-21T11:00:17.582Z,12.34
2022-10-21T11:03:02.039Z,12.46
2022-10-21T11:05:43.748Z,12.61
2022-10-21T11:08:23.180Z,12.55
2022-10-21T11:11:17.763Z,12.54
2022-10-21T11:13:44.204Z,12.59
2022-10-21T11:17:00.249Z,12.66
2022-10-21T11:19:54.924Z,12.88
2022-10-21T11:22:40.275Z,12.95
2022-10-21T11:25:25.158Z,13.15
2022-10-21T11:28:07.274Z,13.35
2022-10-21T11:30:52.350Z,13.37
2022-10-21T11:33:46.384Z,13.47
2022-10-21T12:03:24.761Z,14.65
2022-10-21T12:06:01.961Z,14.79
2022-10-21T12:08:39.652Z,14.85
2022-10-21T12:11:16.970Z,14.97
2022-10-21T12:13:52.167Z,14.87
2022-10-21T12:16:23.052Z,14.85
2022-10-21T12:18:56.535Z,14.86
2022-10-21T12:21:33.381Z,14.66
2022-10-21T12:24:36.519Z,14.86
2022-10-21T12:27:12.643Z,14.76
2022-10-21T12:29:42.975Z,14.85
2022-10-21T12:32:35.325Z,14.91
2022-10-21T12:35:02.638Z,14.91
2022-10-21T12:37:48.440Z,14.82
2022-10-21T12:40:33.471Z,14.80
2022-10-21T12:43:02.468Z,14.61
2022-10-21T12:45:31.991Z,14.71
2022-10-21T12:47:59.112Z,14.85
2022-10-21T12:50:29.709Z,14.93
2022-10-21T12:53:37.878Z,15.04
2022-10-21T12:56:05.643Z,14.99
2022-10-21T12:58:41.281Z,15.15
2022-10-21T13:01:45.357Z,15.14
2022-10-21T13:04:33.554Z,15.08
2022-10-21T13:07:26.162Z,15.07
2022-10-21T13:10:15.874Z,15.09
2022-10-21T13:12:42.334Z,15.06
2022-10-21T13:15:21.240Z,15.09
2022-10-21T13:17:55.658Z,14.97
2022-10-21T13:20:21.971Z,14.92
2022-10-21T13:22:50.759Z,14.95
2022-10-21T13:25:31.826Z,14.88
2022-10-21T13:28:22.002Z,14.96
2022-10-21T13:30:48.252Z,15.00
2022-10-21T13:33:19.311Z,15.10
2022-10-21T13:35:53.300Z,15.10
2022-10-21T13:38:34.058Z,15.03
2022-10-21T13:41:07.143Z,14.91
2022-10-21T13:43:39.412Z,14.73
2022-10-21T13:46:14.737Z,14.78
2022-10-21T13:48:47.384Z,14.79
2022-10-21T13:51:31.533Z,14.95
2022-10-21T13:54:11.283Z,14.81
2022-10-21T13:56:38.464Z,14.78
2022-10-21T13:59:07.190Z,14.71
2022-10-21T14:01:53.719Z,14.76
2022-10-21T14:04:26.550Z,14.77
2022-10-21T14:06:58.670Z,14.73
2022-10-21T14:09:33.645Z,14.73
2022-10-21T14:12:07.258Z,14.74
2022-10-21T14:14:37.437Z,14.68
2022-10-21T14:17:15.178Z,14.70
2022-10-21T14:19:41.993Z,14.62
2022-10-21T14:22:10.537Z,14.71
2022-10-21T14:24:46.650Z,14.78
2022-10-21T14:27:20.067Z,14.75
2022-10-21T14:29:47.421Z,14.66
2022-10-21T14:32:16.527Z,14.75
2022-10-21T14:35:01.383Z,14.70
2022-10-21T14:37:35.089Z,14.63
2022-10-21T14:40:19.140Z,14.68
2022-10-21T14:42:48.649Z,14.77
2022-10-21T14:45:25.022Z,14.78
2022-10-21T14:48:01.860Z,14.81
2022-10-21T14:50:28.350Z,14.78
2022-10-21T14:52:55.001Z,14.74
2022-10-21T14:55:29.301Z,14.69
2022-10-21T14:58:05.525Z,14.71
2022-10-21T15:00:40.252Z,14.68
2022-10-21T15:03:10.779Z,14.70
2022-10-21T15:05:49.223Z,14.65
2022-10-21T15:08:22.645Z,14.56
2022-10-21T15:11:00.042Z,14.53
2022-10-21T15:13:26.869Z,14.48
2022-10-21T15:15:55.869Z,14.51
2022-10-21T15:18:52.516Z,14.56
2022-10-21T15:21:38.300Z,14.48
2022-10-21T15:24:06.144Z,14.35
2022-10-21T15:26:40.580Z,14.34
2022-10-21T16:59:14.224Z,12.97
2022-10-21T17:01:40.918Z,12.98
2022-10-21T17:04:07.687Z,12.99
2022-10-21T17:06:34.297Z,12.97
2022-10-21T17:09:01.135Z,12.95
2022-10-21T17:11:41.082Z,12.87
2022-10-21T17:14:11.725Z,12.86
2022-10-21T17:16:40.223Z,12.84
2022-10-21T17:19:07.952Z,12.83
2022-10-21T17:21:34.558Z,12.93
2022-10-21T17:24:02.289Z,12.94
2022-10-21T17:26:33.945Z,12.95
2022-10-21T17:29:01.669Z,13.01
2022-10-21T17:31:30.399Z,13.05
2022-10-21T17:34:02.031Z,13.13
2022-10-21T17:36:28.515Z,13.15
2022-10-21T17:38:54.879Z,13.14
2022-10-21T17:41:21.367Z,13.21
2022-10-21T17:43:48.313Z,13.27
2022-10-21T17:46:23.893Z,13.35
2022-10-21T17:48:55.211Z,13.37
2022-10-21T17:51:23.309Z,13.33
2022-10-21T17:53:53.683Z,13.32
2022-10-21T17:56:20.658Z,13.36
2022-10-21T17:58:51.879Z,13.42
2022-10-21T18:01:18.313Z,13.45
2022-10-21T18:03:45.208Z,13.48
2022-10-21T18:06:13.339Z,13.47
2022-10-21T18:08:39.967Z,13.43
2022-10-21T18:11:08.921Z,13.32
2022-10-21T18:13:35.370Z,13.38
2022-10-21T18:16:07.777Z,13.34
2022-10-21T18:18:35.254Z,13.39
2022-10-21T18:21:03.991Z,13.42
2022-10-21T18:23:30.576Z,13.37
2022-10-21T18:25:58.754Z,13.41
2022-10-21T18:28:25.077Z,13.46
2022-10-21T18:30:51.429Z,13.41
2022-10-21T18:33:17.763Z,13.44
2022-10-21T18:35:44.065Z,13.51
2022-10-21T18:38:10.452Z,13.52
2022-10-21T18:40:47.106Z,13.53
2022-10-21T18:43:22.901Z,13.47
2022-10-21T18:45:49.275Z,13.48
2022-10-21T18:48:15.621Z,13.44
2022-10-21T18:50:41.940Z,13.43
2022-10-21T18:53:08.279Z,13.39
2022-10-21T18:55:34.654Z,13.40
2022-10-21T18:58:00.960Z,13.39
2022-10-21T19:00:27.400Z,13.38
2022-10-21T19:02:53.783Z,13.35
2022-10-21T19:05:20.186Z,13.34
2022-10-21T19:07:49.586Z,13.32
2022-10-21T19:10:15.939Z,13.32
2022-10-21T19:12:42.297Z,13.34
2022-10-21T19:15:09.404Z,13.36
2022-10-21T19:17:35.808Z,13.39
2022-10-21T19:20:03.604Z,13.38
2022-10-21T19:22:31.127Z,13.36
2022-10-21T19:24:57.478Z,13.37
2022-10-21T19:27:23.891Z,13.41
2022-10-21T19:29:50.253Z,13.44
2022-10-21T19:32:16.843Z,13.40
2022-10-21T19:34:43.960Z,13.43
2022-10-21T19:37:12.389Z,13.47
2022-10-21T19:39:38.937Z,13.51
2022-10-21T19:42:05.427Z,13.52
2022-10-21T19:44:31.782Z,13.52
2022-10-21T19:46:58.125Z,13.57
2022-10-21T19:49:24.524Z,13.60
2022-10-21T19:51:50.915Z,13.64
2022-10-21T19:54:17.334Z,13.71
2022-10-21T19:56:43.733Z,13.74
2022-10-21T19:59:10.778Z,13.76
2022-10-21T20:01:37.570Z,13.74
2022-10-21T20:04:04.727Z,13.77
2022-10-21T20:06:44.338Z,13.73
2022-10-21T20:09:13.587Z,13.82
2022-10-21T20:11:42.973Z,13.87
2022-10-21T20:14:12.860Z,13.89
2022-10-21T20:16:43.561Z,13.87
2022-10-21T20:19:12.322Z,13.88
2022-10-21T20:21:38.902Z,13.88
2022-10-21T20:24:05.869Z,13.89
2022-10-21T20:26:32.813Z,13.88
2022-10-21T20:29:01.703Z,13.89
2022-10-21T20:31:29.084Z,13.90
2022-10-21T20:33:55.458Z,13.96
2022-10-21T20:36:27.807Z,14.02
2022-10-21T20:38:56.087Z,14.01
2022-10-21T20:41:30.506Z,13.92
2022-10-21T20:43:56.826Z,13.96
2022-10-21T20:46:25.062Z,13.93
2022-10-21T20:48:53.050Z,13.97
2022-10-21T20:51:25.004Z,14.02
2022-10-21T20:53:53.978Z,14.02
2022-10-21T20:56:21.578Z,13.98
2022-10-21T20:58:48.770Z,13.97
2022-10-21T21:01:22.101Z,13.94
2022-10-21T21:03:49.634Z,13.91
2022-10-21T21:06:16.335Z,13.86
2022-10-21T21:08:48.764Z,13.78
2022-10-21T21:11:15.869Z,13.83
2022-10-21T21:13:44.245Z,13.80
2022-10-21T21:16:13.379Z,13.78
2022-10-21T21:18:42.660Z,13.77
2022-10-21T21:21:17.069Z,13.74
2022-10-21T21:23:44.534Z,13.79
2022-10-21T21:26:14.394Z,13.80
2022-10-21T21:28:41.203Z,13.82
2022-10-21T21:31:09.523Z,13.77
2022-10-21T21:33:36.471Z,13.75
2022-10-21T21:36:04.707Z,13.70
2022-10-21T21:38:32.965Z,13.69
2022-10-21T21:40:59.810Z,13.73
2022-10-21T21:43:27.763Z,13.77
2022-10-21T21:45:54.433Z,13.75
2022-10-21T21:48:21.176Z,13.71
2022-10-21T21:50:48.103Z,13.71
2022-10-21T21:53:16.914Z,13.73
2022-10-21T21:55:43.560Z,13.65
2022-10-21T21:58:09.935Z,13.65
2022-10-21T22:00:37.184Z,13.59
2022-10-21T22:03:04.632Z,13.56
2022-10-21T22:05:33.615Z,13.58
2022-10-21T22:08:00.854Z,13.52
2022-10-21T22:10:28.127Z,13.54
2022-10-21T22:12:58.253Z,13.57
2022-10-21T22:18:11.593Z,13.48
2022-10-21T22:20:40.134Z,13.47
2022-10-21T22:23:06.473Z,13.45
2022-10-21T22:25:32.822Z,13.47
2022-10-21T22:27:59.134Z,13.44
2022-10-21T22:30:25.436Z,13.41
2022-10-21T22:32:51.768Z,13.41
2022-10-21T22:35:18.201Z,13.39
2022-10-21T22:37:44.765Z,13.39
2022-10-21T22:40:11.613Z,13.42
2022-10-21T22:42:37.976Z,13.47
2022-10-21T22:45:04.904Z,13.51
2022-10-21T22:47:31.217Z,13.54
2022-10-21T22:49:57.556Z,13.54
2022-10-21T22:52:23.954Z,13.45
2022-10-21T22:54:50.279Z,13.53
2022-10-21T22:57:16.775Z,13.55
2022-10-21T22:59:44.241Z,13.58
2022-10-21T23:02:11.666Z,13.58
2022-10-21T23:04:38.036Z,13.57
2022-10-21T23:07:04.389Z,13.61
2022-10-21T23:09:30.714Z,13.61
2022-10-21T23:11:57.277Z,13.60
2022-10-21T23:14:23.578Z,13.64
2022-10-21T23:16:49.924Z,13.67
2022-10-21T23:19:16.211Z,13.68
2022-10-21T23:21:42.568Z,13.68
2022-10-21T23:24:09.620Z,13.70
2022-10-21T23:26:35.982Z,13.69
2022-10-21T23:29:02.363Z,13.61
2022-10-21T23:31:28.761Z,13.64
2022-10-21T23:33:55.079Z,13.65
2022-10-21T23:36:21.470Z,13.68
2022-10-21T23:38:47.879Z,13.71
2022-10-21T23:41:14.229Z,13.72
2022-10-21T23:43:40.569Z,13.71
2022-10-21T23:46:06.926Z,13.72
2022-10-21T23:48:33.248Z,13.77
2022-10-21T23:50:59.572Z,13.82
2022-10-21T23:53:25.911Z,13.83
2022-10-21T23:55:52.244Z,13.86
2022-10-21T23:58:18.600Z,13.86
